Terminal Aerodrome Forecast
Issued by NWS Sioux Falls, SD

Home | Current Version | Previous Version | Graphics & Text | Print | Product List | Glossary Off
Versions: 1 2 3 4 5 6 7 8 9 10 11 12 13 14 15 16 17

000
FTUS43 KFSD 160532
TAFFSD
TAF
KFSD 160532Z 1606/1706 34022G30KT 6SM BLSN OVC018
     FM161000 34016G25KT P6SM OVC018
     FM161900 33014KT P6SM SCT018
     FM170000 33005KT P6SM SKC=

USA.gov is the U.S. government's official web portal to all federal, state and local government web resources and services.